Home   Weather   China   Fushun   Past weeks
Flag for China

Past Weather in Fushun, Liaoning, China — Yesterday and Last 2 Weeks

Currently: 30 °F. Passing clouds. (Weather station: Shenyang / Taoxian, China). See more current weather

Past Weather in Fushun — Graph

°F

Fushun Temperature Yesterday

Maximum temperature yesterday: 30 °F (at 2:30 pm)
Minimum temperature yesterday: 14 °F (at 12:00 am)
Average temperature yesterday: 23 °F

High & Low Weather Summary for the Past Weeks

 TemperatureHumidityPressure
High52 °F (Feb 18, 12:30 pm)93% (Feb 18, 7:00 pm)30.72 "Hg (Feb 18, 7:00 pm)
Low5 °F (Feb 20, 6:00 am)19% (Mar 1, 3:00 pm)29.86 "Hg (Feb 18, 4:00 am)
Average22 °F51%30.39 "Hg
* Reported Feb 17 10:30 am — Mar 3 10:00 am, Fushun. Weather by CustomWeather, © 2024

Note: Actual official high and low records may vary slightly from our data, if they occured in-between our weather recording intervals... More about our weather records

Fushun Weather History for the Previous 24 Hours

Scroll right to see more
 ConditionsComfort  
Time TempWeatherWind HumidityBarometerVisibility
10:00 am
Sun, Mar 3
28 °FPassing clouds.10 mph34%30.12 "HgN/A
9:30 am28 °FPassing clouds.10 mph37%30.12 "HgN/A
9:00 am27 °FPassing clouds.10 mph36%30.12 "HgN/A
8:30 am25 °FPassing clouds.8 mph46%30.09 "HgN/A
8:00 am21 °FPassing clouds.3 mph63%30.09 "HgN/A
7:30 am16 °FSunny.1 mph73%30.09 "Hg10 mi
7:00 am16 °FSunny.No wind67%30.07 "Hg10 mi
6:30 am12 °FSunny.1 mph79%30.07 "Hg10 mi
6:00 am9 °FClear.1 mph78%30.07 "Hg10 mi
5:30 am12 °FClear.1 mph73%30.04 "Hg10 mi
5:00 am12 °FClear.3 mph67%30.04 "Hg10 mi
4:30 am14 °FClear.1 mph73%30.04 "Hg10 mi
4:00 am12 °FClear.1 mph73%30.04 "Hg10 mi
3:30 am16 °FClear.1 mph62%30.04 "Hg10 mi
3:00 am16 °FClear.1 mph62%30.04 "Hg10 mi
2:30 am18 °FClear.3 mph58%30.01 "Hg10 mi
2:00 am18 °FClear.6 mph58%30.01 "Hg10 mi
1:30 am18 °FPassing clouds.3 mph58%30.01 "HgN/A
1:00 am18 °FClear.3 mph53%30.01 "Hg10 mi
12:30 am18 °FClear.1 mph58%30.01 "Hg10 mi
12:00 am18 °FClear.6 mph53%30.01 "Hg10 mi
11:30 pm
Sat, Mar 2
16 °FClear.3 mph62%29.98 "Hg10 mi
11:00 pm16 °FClear.1 mph57%29.98 "Hg10 mi
10:30 pm19 °FClear.3 mph53%29.98 "Hg10 mi
10:00 pm19 °FClear.3 mph49%29.95 "Hg10 mi
9:30 pm21 °FClear.3 mph45%29.98 "Hg10 mi
9:00 pm21 °FClear.6 mph42%29.98 "Hg10 mi
8:30 pm21 °FClear.6 mph42%29.98 "Hg10 mi
8:00 pm23 °FClear.3 mph42%29.98 "Hg10 mi
7:30 pm23 °FClear.3 mph42%29.98 "Hg10 mi
7:00 pm25 °FClear.3 mph39%29.98 "Hg10 mi
6:30 pm25 °FClear.3 mph39%29.98 "Hg10 mi
6:00 pm27 °FClear.3 mph33%29.98 "Hg10 mi
5:30 pm28 °FSunny.3 mph29%29.95 "Hg10 mi
5:00 pm28 °FPassing clouds.3 mph29%29.95 "HgN/A
4:30 pm30 °FPassing clouds.1 mph26%29.95 "HgN/A
4:00 pm30 °FPassing clouds.3 mph26%29.95 "HgN/A
3:30 pm30 °FPassing clouds.3 mph26%29.98 "HgN/A
3:00 pm30 °FPassing clouds.6 mph26%29.98 "HgN/A
2:30 pm30 °FPassing clouds.6 mph24%29.98 "HgN/A
2:00 pm28 °FPassing clouds.6 mph26%29.98 "HgN/A
1:30 pm28 °FPassing clouds.3 mph26%29.98 "HgN/A
1:00 pm28 °FPassing clouds.8 mph26%29.98 "HgN/A
12:30 pm28 °FPassing clouds.6 mph26%30.01 "HgN/A
12:00 pm28 °FPassing clouds.6 mph26%30.01 "HgN/A
Weather by CustomWeather, © 2024

See weather overview